createdAt,value
2023-04-20T00:02:44.474Z,7.79
2023-04-20T00:05:49.338Z,7.90
2023-04-20T00:08:50.932Z,8.00
2023-04-20T00:11:52.977Z,7.97
2023-04-20T00:14:54.580Z,8.07
2023-04-20T00:17:56.375Z,7.96
2023-04-20T00:20:58.007Z,8.08
2023-04-20T00:23:59.844Z,8.04
2023-04-20T00:27:01.443Z,7.92
2023-04-20T00:30:03.305Z,8.08
2023-04-20T00:33:04.961Z,7.98
2023-04-20T00:36:06.841Z,7.92
2023-04-20T00:39:08.450Z,8.01
2023-04-20T00:42:10.114Z,7.77
2023-04-20T00:45:11.783Z,7.86
2023-04-20T00:48:14.488Z,7.87
2023-04-20T00:51:16.179Z,7.82
2023-04-20T00:54:17.733Z,7.74
2023-04-20T00:57:23.977Z,7.69
2023-04-20T01:00:26.622Z,7.78
2023-04-20T01:03:28.356Z,7.70
2023-04-20T01:06:30.702Z,7.77
2023-04-20T01:09:32.261Z,7.68
2023-04-20T01:12:34.414Z,7.57
2023-04-20T01:15:36.131Z,7.59
2023-04-20T01:18:45.425Z,7.66
2023-04-20T01:21:47.465Z,7.66
2023-04-20T01:24:49.029Z,7.63
2023-04-20T01:27:50.607Z,7.57
2023-04-20T01:30:52.193Z,7.58
2023-04-20T01:33:53.793Z,7.43
2023-04-20T01:36:55.615Z,7.44
2023-04-20T01:39:57.957Z,7.43
2023-04-20T01:42:59.596Z,7.31
2023-04-20T01:46:01.935Z,7.28
2023-04-20T01:49:03.480Z,7.33
2023-04-20T01:52:05.249Z,7.38
2023-04-20T01:55:07.107Z,7.22
2023-04-20T01:58:08.712Z,7.24
2023-04-20T02:01:10.669Z,7.14
2023-04-20T02:04:12.326Z,7.06
2023-04-20T02:07:13.975Z,7.08
2023-04-20T02:10:15.764Z,7.09
2023-04-20T02:13:17.369Z,7.09
2023-04-20T02:16:22.305Z,7.06
2023-04-20T02:19:24.312Z,6.99
2023-04-20T02:22:25.893Z,7.01
2023-04-20T02:25:27.496Z,6.89
2023-04-20T02:28:29.101Z,6.67
2023-04-20T02:31:31.001Z,6.70
2023-04-20T02:34:32.591Z,6.60
2023-04-20T02:37:34.139Z,6.58
2023-04-20T02:40:35.723Z,6.36
2023-04-20T02:43:37.317Z,6.56
2023-04-20T02:46:38.946Z,6.62
2023-04-20T02:49:40.993Z,6.55
2023-04-20T02:52:42.558Z,6.48
2023-04-20T02:55:44.087Z,6.50
2023-04-20T02:58:46.612Z,6.38
2023-04-20T03:01:48.238Z,6.31
2023-04-20T03:04:49.909Z,6.25
2023-04-20T03:07:51.774Z,6.12
2023-04-20T03:10:53.622Z,6.04
2023-04-20T03:13:55.374Z,5.92
2023-04-20T03:16:57.563Z,5.99
2023-04-20T03:19:59.123Z,5.84
2023-04-20T03:23:00.759Z,5.94
2023-04-20T03:26:02.371Z,5.73
2023-04-20T03:29:03.935Z,5.80
2023-04-20T03:32:05.838Z,5.78
2023-04-20T03:35:08.954Z,5.71
2023-04-20T03:38:10.532Z,5.71
2023-04-20T03:41:12.105Z,5.91
2023-04-20T03:44:15.122Z,5.79
2023-04-20T03:47:16.712Z,5.73
2023-04-20T03:50:18.371Z,5.79
2023-04-20T03:53:20.009Z,5.82
2023-04-20T03:56:21.653Z,5.90
2023-04-20T03:59:23.263Z,5.83
2023-04-20T04:02:24.907Z,5.81
2023-04-20T04:05:27.082Z,5.83
2023-04-20T04:08:28.767Z,5.93
2023-04-20T04:11:30.478Z,5.91
2023-04-20T04:14:33.740Z,6.08
2023-04-20T04:17:35.313Z,5.88
2023-04-20T04:20:36.964Z,5.86
2023-04-20T04:23:38.678Z,5.89
2023-04-20T04:26:40.368Z,5.85
2023-04-20T04:29:42.646Z,5.94
2023-04-20T04:32:49.027Z,6.00
2023-04-20T04:35:50.778Z,5.90
2023-04-20T04:38:52.861Z,6.03
2023-04-20T04:41:54.467Z,6.01
2023-04-20T04:44:56.359Z,6.08
2023-04-20T04:47:59.004Z,6.10
2023-04-20T04:51:00.647Z,6.25
2023-04-20T04:54:02.224Z,6.26
2023-04-20T04:57:03.900Z,6.32
2023-04-20T05:00:12.897Z,6.53
2023-04-20T05:03:14.572Z,6.48
2023-04-20T05:06:16.349Z,6.68
2023-04-20T05:09:18.166Z,6.95
2023-04-20T05:12:19.902Z,7.10
2023-04-20T05:15:21.553Z,7.23
2023-04-20T05:18:23.230Z,7.27
2023-04-20T05:21:24.833Z,7.42
2023-04-20T05:24:26.843Z,7.47
2023-04-20T05:27:28.457Z,7.53
2023-04-20T05:30:30.078Z,7.63
2023-04-20T05:33:31.683Z,7.63
2023-04-20T05:36:33.852Z,8.01
2023-04-20T05:39:35.559Z,8.30
2023-04-20T05:42:37.102Z,8.36
2023-04-20T05:45:39.276Z,8.55
2023-04-20T05:48:40.836Z,8.84
2023-04-20T05:51:42.373Z,9.05
2023-04-20T05:54:43.934Z,9.16
2023-04-20T05:57:45.606Z,9.27
2023-04-20T06:00:47.728Z,9.46
2023-04-20T06:03:49.567Z,9.69
2023-04-20T06:06:51.240Z,9.94
2023-04-20T06:09:52.819Z,9.91
2023-04-20T06:12:54.382Z,10.22
2023-04-20T06:15:56.184Z,10.15
2023-04-20T06:18:57.798Z,10.54
2023-04-20T06:22:00.980Z,10.82
2023-04-20T06:25:03.351Z,10.91
2023-04-20T06:28:06.297Z,10.92
2023-04-20T06:31:07.936Z,11.12
2023-04-20T06:34:09.646Z,11.27
2023-04-20T06:37:11.210Z,11.47
2023-04-20T06:40:14.344Z,11.68
2023-04-20T06:43:17.680Z,11.84
2023-04-20T06:46:19.308Z,12.07
2023-04-20T06:49:21.021Z,12.06
2023-04-20T06:52:22.643Z,12.34
2023-04-20T06:55:24.824Z,12.45
2023-04-20T06:58:26.763Z,12.82
2023-04-20T07:01:28.420Z,12.63
2023-04-20T07:04:30.033Z,12.54
2023-04-20T07:07:31.593Z,13.25
2023-04-20T07:10:33.208Z,13.50
2023-04-20T07:13:34.807Z,13.55
2023-04-20T07:16:36.444Z,13.38
2023-04-20T07:19:37.995Z,14.02
2023-04-20T07:22:39.632Z,14.33
2023-04-20T07:25:41.234Z,14.63
2023-04-20T07:28:43.098Z,14.75
2023-04-20T07:31:44.720Z,14.88
2023-04-20T07:34:46.434Z,15.17
2023-04-20T07:37:48.016Z,15.29
2023-04-20T07:40:49.606Z,15.12
2023-04-20T07:43:51.491Z,15.52
2023-04-20T07:46:53.111Z,15.74
2023-04-20T07:49:54.883Z,15.89
2023-04-20T07:52:56.481Z,16.13
2023-04-20T07:55:58.069Z,16.35
2023-04-20T07:58:59.669Z,16.15
2023-04-20T08:02:02.716Z,15.42
2023-04-20T08:05:05.232Z,15.68
2023-04-20T08:08:07.354Z,16.19
2023-04-20T08:11:09.013Z,16.38
2023-04-20T08:14:10.948Z,16.59
2023-04-20T08:17:12.512Z,16.75
2023-04-20T08:20:14.173Z,16.82
2023-04-20T08:23:15.860Z,17.09
2023-04-20T08:26:17.670Z,17.66
2023-04-20T08:29:20.783Z,17.80
2023-04-20T08:32:23.983Z,17.84
2023-04-20T08:35:25.820Z,17.99
2023-04-20T08:38:33.837Z,17.88
2023-04-20T08:41:36.551Z,18.18
2023-04-20T08:44:38.184Z,18.30
2023-04-20T08:47:42.153Z,18.13
2023-04-20T08:50:44.354Z,18.34
2023-04-20T08:53:46.039Z,18.10
2023-04-20T08:56:48.202Z,18.66
2023-04-20T08:59:49.810Z,18.06
2023-04-20T09:02:53.836Z,18.74
2023-04-20T09:05:55.525Z,18.97
2023-04-20T09:08:57.179Z,19.15
2023-04-20T09:12:03.070Z,19.38
2023-04-20T09:15:06.112Z,18.99
2023-04-20T09:18:15.359Z,19.09
2023-04-20T09:21:17.174Z,19.62
2023-04-20T09:24:21.045Z,19.73
2023-04-20T09:27:23.533Z,19.68
2023-04-20T09:30:45.675Z,19.86
2023-04-20T09:34:03.909Z,20.18
2023-04-20T09:37:07.242Z,20.31
2023-04-20T09:40:09.671Z,20.57
2023-04-20T09:43:18.856Z,20.64
2023-04-20T09:46:20.831Z,20.73
2023-04-20T09:49:22.602Z,20.83
2023-04-20T09:52:26.447Z,20.43
2023-04-20T09:55:31.279Z,20.20
2023-04-20T09:58:34.236Z,19.75
2023-04-20T10:01:37.556Z,20.09
2023-04-20T10:04:54.062Z,19.38
2023-04-20T10:08:01.192Z,20.21
2023-04-20T10:11:02.806Z,21.53
2023-04-20T10:14:19.022Z,20.80
2023-04-20T10:17:31.002Z,21.95
2023-04-20T10:20:32.998Z,21.71
2023-04-20T10:23:34.822Z,19.99
2023-04-20T10:26:42.026Z,21.47
2023-04-20T10:29:43.793Z,21.38
2023-04-20T10:32:45.536Z,20.75
2023-04-20T10:35:50.680Z,21.52
2023-04-20T10:38:53.152Z,22.81
2023-04-20T10:41:58.508Z,22.37
2023-04-20T10:45:00.335Z,22.41
2023-04-20T10:48:11.713Z,22.98
2023-04-20T10:51:13.337Z,22.97
2023-04-20T10:54:16.971Z,22.02
2023-04-20T10:57:19.710Z,22.16
2023-04-20T11:00:27.860Z,21.70
2023-04-20T11:03:31.230Z,21.46
2023-04-20T11:06:33.510Z,22.44
2023-04-20T11:09:35.708Z,22.96
2023-04-20T11:12:40.284Z,22.68
2023-04-20T11:15:41.880Z,22.62
2023-04-20T11:18:51.997Z,21.60
2023-04-20T11:21:53.719Z,20.93
2023-04-20T11:25:05.649Z,21.99
2023-04-20T11:28:11.064Z,23.28
2023-04-20T11:31:19.099Z,24.13
2023-04-20T11:34:21.834Z,23.23
2023-04-20T11:37:23.393Z,24.28
2023-04-20T11:40:26.123Z,24.29
2023-04-20T11:43:28.835Z,23.94
2023-04-20T11:46:35.478Z,23.92
2023-04-20T11:49:37.131Z,22.83
2023-04-20T11:52:38.785Z,21.36
2023-04-20T11:55:41.802Z,22.75
2023-04-20T11:58:43.824Z,23.11
2023-04-20T12:01:46.016Z,24.63
2023-04-20T12:04:47.916Z,24.93
2023-04-20T12:07:49.711Z,23.18
2023-04-20T12:10:51.456Z,24.42
2023-04-20T12:13:54.562Z,24.56
2023-04-20T12:16:57.459Z,24.71
2023-04-20T12:20:00.636Z,24.87
2023-04-20T12:23:02.526Z,24.51
2023-04-20T12:26:05.025Z,23.76
2023-04-20T12:29:07.426Z,23.08
2023-04-20T12:32:09.073Z,22.20
2023-04-20T12:35:10.705Z,21.23
2023-04-20T12:38:14.467Z,20.44
2023-04-20T12:41:16.766Z,20.30
2023-04-20T12:44:18.629Z,20.19
2023-04-20T12:47:20.578Z,20.77
2023-04-20T12:50:22.504Z,20.96
2023-04-20T12:53:24.125Z,23.22
2023-04-20T12:56:25.988Z,23.43
2023-04-20T12:59:27.570Z,22.57
2023-04-20T13:02:29.244Z,21.65
2023-04-20T13:05:30.855Z,21.11
2023-04-20T13:08:32.488Z,20.51
2023-04-20T13:11:34.054Z,20.30
2023-04-20T13:14:35.716Z,19.61
2023-04-20T13:17:37.344Z,19.89
2023-04-20T13:20:39.036Z,21.29
2023-04-20T13:23:40.725Z,21.55
2023-04-20T13:26:42.415Z,23.40
2023-04-20T13:29:43.997Z,24.42
2023-04-20T13:32:45.670Z,25.05
2023-04-20T13:35:47.293Z,25.53
2023-04-20T13:38:49.175Z,26.08
2023-04-20T13:41:50.752Z,25.16
2023-04-20T13:44:52.338Z,24.77
2023-04-20T13:47:54.140Z,24.29
2023-04-20T13:50:55.779Z,22.23
2023-04-20T13:53:57.358Z,21.52
2023-04-20T13:56:58.938Z,21.44
2023-04-20T14:00:01.601Z,21.64
2023-04-20T14:03:03.507Z,21.39
2023-04-20T14:06:05.513Z,21.41
2023-04-20T14:09:07.238Z,22.40
2023-04-20T14:12:08.890Z,23.48
2023-04-20T14:15:11.322Z,23.58
2023-04-20T14:18:13.112Z,22.76
2023-04-20T14:21:14.803Z,23.17
2023-04-20T14:24:16.663Z,23.66
2023-04-20T14:27:18.473Z,24.32
2023-04-20T14:30:20.156Z,24.47
2023-04-20T14:33:23.075Z,23.99
2023-04-20T14:36:24.650Z,23.92
2023-04-20T14:39:26.394Z,24.01
2023-04-20T14:42:27.963Z,24.36
2023-04-20T14:45:29.750Z,23.28
2023-04-20T14:48:31.273Z,23.27
2023-04-20T14:51:33.172Z,23.87
2023-04-20T14:54:35.225Z,24.37
2023-04-20T14:57:36.807Z,23.61
2023-04-20T15:00:38.734Z,22.74
2023-04-20T15:03:40.754Z,23.53
2023-04-20T15:06:42.506Z,24.55
2023-04-20T15:09:44.051Z,25.03
2023-04-20T15:12:47.222Z,24.29
2023-04-20T15:15:50.371Z,24.15
2023-04-20T15:18:54.583Z,24.30
2023-04-20T15:21:56.238Z,24.48
2023-04-20T15:24:57.805Z,25.70
2023-04-20T15:27:59.401Z,26.10
2023-04-20T15:31:01.060Z,25.12
2023-04-20T15:34:02.830Z,25.03
2023-04-20T15:37:04.574Z,25.85
2023-04-20T15:40:06.937Z,24.74
2023-04-20T15:43:08.674Z,24.37
2023-04-20T15:46:10.637Z,24.65
2023-04-20T15:49:12.296Z,25.18
2023-04-20T15:52:13.874Z,24.88
2023-04-20T15:55:15.862Z,25.33
2023-04-20T15:58:17.469Z,25.44
2023-04-20T16:01:19.817Z,24.70
2023-04-20T16:04:21.794Z,24.66
2023-04-20T16:07:23.747Z,24.20
2023-04-20T16:10:27.373Z,24.21
2023-04-20T16:13:28.957Z,24.80
2023-04-20T16:16:30.672Z,24.08
2023-04-20T16:19:33.832Z,22.62
2023-04-20T16:22:35.461Z,22.10
2023-04-20T16:25:38.510Z,21.61
2023-04-20T16:28:40.087Z,20.93
2023-04-20T16:31:41.659Z,20.18
2023-04-20T16:34:43.295Z,19.98
2023-04-20T16:37:45.710Z,19.78
2023-04-20T16:40:47.330Z,19.59
2023-04-20T16:43:49.012Z,19.40
2023-04-20T16:46:51.513Z,19.16
2023-04-20T16:49:53.232Z,19.15
2023-04-20T16:52:54.873Z,18.94
2023-04-20T16:55:57.901Z,18.83
2023-04-20T16:58:59.479Z,18.50
2023-04-20T17:02:01.144Z,18.23
2023-04-20T17:05:04.786Z,18.13
2023-04-20T17:08:06.729Z,18.09
2023-04-20T17:11:08.727Z,17.78
2023-04-20T17:14:10.394Z,17.58
2023-04-20T17:17:12.000Z,17.28
2023-04-20T17:20:13.897Z,16.99
2023-04-20T17:23:19.138Z,16.72
2023-04-20T17:26:20.938Z,16.74
2023-04-20T17:29:22.526Z,16.57
2023-04-20T17:32:24.425Z,16.54
2023-04-20T17:35:26.390Z,16.43
2023-04-20T17:38:27.957Z,16.38
2023-04-20T17:41:29.609Z,16.31
2023-04-20T17:44:31.254Z,16.27
2023-04-20T17:47:32.883Z,16.14
2023-04-20T17:50:34.836Z,16.18
2023-04-20T17:53:36.403Z,16.13
2023-04-20T17:56:37.978Z,16.01
2023-04-20T17:59:41.792Z,15.97
2023-04-20T18:02:43.494Z,15.86
2023-04-20T18:05:45.794Z,15.68
2023-04-20T18:08:47.373Z,15.47
2023-04-20T18:11:49.075Z,15.30
2023-04-20T18:14:50.837Z,15.18
2023-04-20T18:17:52.407Z,14.99
2023-04-20T18:20:54.098Z,14.98
2023-04-20T18:23:55.858Z,14.99
2023-04-20T18:26:57.526Z,14.96
2023-04-20T18:30:02.158Z,14.87
2023-04-20T18:33:04.154Z,14.73
2023-04-20T18:36:06.021Z,14.66
2023-04-20T18:39:09.612Z,14.71
2023-04-20T18:42:11.626Z,14.71
2023-04-20T18:45:13.361Z,14.62
2023-04-20T18:48:14.933Z,14.66
2023-04-20T18:51:16.532Z,14.61
2023-04-20T18:54:18.312Z,14.68
2023-04-20T18:57:24.009Z,14.62
2023-04-20T19:00:25.943Z,14.53
2023-04-20T19:03:27.725Z,14.63
2023-04-20T19:06:29.364Z,14.59
2023-04-20T19:09:31.023Z,14.63
2023-04-20T19:12:33.802Z,14.58
2023-04-20T19:15:35.536Z,14.57
2023-04-20T19:18:37.656Z,14.58
2023-04-20T19:21:39.249Z,14.58
2023-04-20T19:24:40.829Z,14.49
2023-04-20T19:27:42.540Z,14.42
2023-04-20T19:30:44.446Z,14.47
2023-04-20T19:33:46.125Z,14.27
2023-04-20T19:36:47.842Z,14.42
2023-04-20T19:39:49.856Z,14.25
2023-04-20T19:42:51.400Z,14.27
2023-04-20T19:45:55.635Z,14.39
2023-04-20T19:48:58.896Z,14.33
2023-04-20T19:52:00.498Z,14.26
2023-04-20T19:55:03.901Z,14.09
2023-04-20T19:58:09.233Z,14.12
2023-04-20T20:01:10.909Z,13.90
2023-04-20T20:04:12.736Z,14.03
2023-04-20T20:07:14.408Z,14.10
2023-04-20T20:10:16.060Z,14.07
2023-04-20T20:13:17.639Z,14.02
2023-04-20T20:16:19.324Z,13.86
2023-04-20T20:19:22.113Z,13.92
2023-04-20T20:22:23.765Z,13.87
2023-04-20T20:25:25.789Z,13.88
2023-04-20T20:28:27.437Z,13.83
2023-04-20T20:31:29.045Z,13.83
2023-04-20T20:34:30.760Z,13.87
2023-04-20T20:37:34.794Z,13.75
2023-04-20T20:40:37.572Z,13.72
2023-04-20T20:43:42.236Z,13.77
2023-04-20T20:46:43.915Z,13.73
2023-04-20T20:49:45.763Z,13.69
2023-04-20T20:52:47.349Z,13.59
2023-04-20T20:55:48.983Z,13.56
2023-04-20T20:58:50.748Z,13.62
2023-04-20T21:01:52.314Z,13.62
2023-04-20T21:04:54.163Z,13.50
2023-04-20T21:07:55.803Z,13.44
2023-04-20T21:10:57.494Z,13.47
2023-04-20T21:14:01.943Z,13.44
2023-04-20T21:17:04.717Z,13.42
2023-04-20T21:20:09.138Z,13.42
2023-04-20T21:23:10.873Z,13.47
2023-04-20T21:26:12.465Z,13.38
2023-04-20T21:29:14.061Z,13.34
2023-04-20T21:32:15.857Z,13.25
2023-04-20T21:35:17.472Z,13.31
2023-04-20T21:38:19.037Z,13.23
2023-04-20T21:41:21.697Z,13.15
2023-04-20T21:44:23.479Z,13.12
2023-04-20T21:47:25.095Z,12.96
2023-04-20T21:50:28.528Z,12.83
2023-04-20T21:53:30.099Z,12.75
2023-04-20T21:56:31.696Z,12.55
2023-04-20T21:59:33.246Z,12.38
2023-04-20T22:02:34.841Z,12.27
2023-04-20T22:05:36.545Z,12.15
2023-04-20T22:08:39.903Z,12.06
2023-04-20T22:11:41.611Z,11.99
2023-04-20T22:14:43.148Z,11.85
2023-04-20T22:17:47.820Z,11.71
2023-04-20T22:20:49.816Z,11.63
2023-04-20T22:23:51.355Z,11.37
2023-04-20T22:26:52.911Z,11.32
2023-04-20T22:29:54.575Z,11.11
2023-04-20T22:32:56.152Z,11.20
2023-04-20T22:35:57.805Z,11.19
2023-04-20T22:38:59.402Z,11.18
2023-04-20T22:42:02.113Z,11.11
2023-04-20T22:45:04.775Z,10.98
2023-04-20T22:48:06.741Z,10.88
2023-04-20T22:51:08.329Z,10.71
2023-04-20T22:54:09.924Z,10.65
2023-04-20T22:57:11.502Z,10.64
2023-04-20T23:00:13.994Z,10.61
2023-04-20T23:03:16.080Z,10.71
2023-04-20T23:06:18.795Z,10.59
2023-04-20T23:09:20.783Z,10.67
2023-04-20T23:12:22.787Z,10.60
2023-04-20T23:15:24.391Z,10.51
2023-04-20T23:18:26.005Z,10.29
2023-04-20T23:21:28.547Z,10.16
2023-04-20T23:24:30.288Z,10.14
2023-04-20T23:27:31.955Z,10.15
2023-04-20T23:30:33.616Z,10.04
2023-04-20T23:33:35.201Z,10.05
2023-04-20T23:36:36.806Z,9.84
2023-04-20T23:39:38.575Z,9.80
2023-04-20T23:42:40.154Z,10.04
2023-04-20T23:45:41.721Z,10.06
2023-04-20T23:48:43.296Z,9.95
2023-04-20T23:51:44.988Z,10.13
2023-04-20T23:54:46.614Z,9.86
2023-04-20T23:57:48.192Z,9.86
